sensor_id;sensor_type;location;lat;lon;timestamp;temperature;humidity
34249;DHT22;20508;50.834;3.160;2022-10-10T00:01:05;20.50;48.50
34249;DHT22;20508;50.834;3.160;2022-10-10T00:03:31;20.50;48.40
34249;DHT22;20508;50.834;3.160;2022-10-10T00:05:57;20.50;48.40
34249;DHT22;20508;50.834;3.160;2022-10-10T00:08:23;20.40;48.40
34249;DHT22;20508;50.834;3.160;2022-10-10T00:10:49;20.40;48.50
34249;DHT22;20508;50.834;3.160;2022-10-10T00:13:16;20.40;48.40
34249;DHT22;20508;50.834;3.160;2022-10-10T00:15:45;20.50;48.40
34249;DHT22;20508;50.834;3.160;2022-10-10T00:18:11;20.40;48.50
34249;DHT22;20508;50.834;3.160;2022-10-10T00:20:37;20.40;48.50
34249;DHT22;20508;50.834;3.160;2022-10-10T00:23:03;20.30;48.50
34249;DHT22;20508;50.834;3.160;2022-10-10T00:25:30;20.40;48.70
34249;DHT22;20508;50.834;3.160;2022-10-10T00:28:00;20.40;48.60
34249;DHT22;20508;50.834;3.160;2022-10-10T00:30:29;20.40;48.40
34249;DHT22;20508;50.834;3.160;2022-10-10T00:32:57;20.50;48.40
34249;DHT22;20508;50.834;3.160;2022-10-10T00:35:24;20.50;48.30
34249;DHT22;20508;50.834;3.160;2022-10-10T00:37:51;20.50;48.20
34249;DHT22;20508;50.834;3.160;2022-10-10T00:40:18;20.60;48.10
34249;DHT22;20508;50.834;3.160;2022-10-10T00:42:44;20.60;47.90
34249;DHT22;20508;50.834;3.160;2022-10-10T00:48:03;20.70;47.80
34249;DHT22;20508;50.834;3.160;2022-10-10T00:50:33;20.70;47.80
34249;DHT22;20508;50.834;3.160;2022-10-10T00:53:03;20.70;47.80
34249;DHT22;20508;50.834;3.160;2022-10-10T00:55:30;20.60;47.80
34249;DHT22;20508;50.834;3.160;2022-10-10T00:57:56;20.60;47.90
34249;DHT22;20508;50.834;3.160;2022-10-10T01:00:23;20.60;47.90
34249;DHT22;20508;50.834;3.160;2022-10-10T01:02:49;20.50;47.90
34249;DHT22;20508;50.834;3.160;2022-10-10T01:05:15;20.50;48.00
34249;DHT22;20508;50.834;3.160;2022-10-10T01:07:42;20.50;48.10
34249;DHT22;20508;50.834;3.160;2022-10-10T01:10:11;20.50;48.10
34249;DHT22;20508;50.834;3.160;2022-10-10T01:21:14;20.50;48.20
34249;DHT22;20508;50.834;3.160;2022-10-10T01:27:25;20.50;48.10
34249;DHT22;20508;50.834;3.160;2022-10-10T01:30:03;20.40;48.10
34249;DHT22;20508;50.834;3.160;2022-10-10T01:38:31;20.40;48.20
34249;DHT22;20508;50.834;3.160;2022-10-10T01:41:13;20.40;48.10
34249;DHT22;20508;50.834;3.160;2022-10-10T01:43:41;20.40;48.20
34249;DHT22;20508;50.834;3.160;2022-10-10T01:46:16;20.30;48.30
34249;DHT22;20508;50.834;3.160;2022-10-10T01:48:46;20.30;48.20
34249;DHT22;20508;50.834;3.160;2022-10-10T02:02:14;20.30;48.40
34249;DHT22;20508;50.834;3.160;2022-10-10T02:07:32;20.30;48.40
34249;DHT22;20508;50.834;3.160;2022-10-10T02:10:05;20.30;48.30
34249;DHT22;20508;50.834;3.160;2022-10-10T02:12:33;20.30;48.30
34249;DHT22;20508;50.834;3.160;2022-10-10T02:15:06;20.30;48.20
34249;DHT22;20508;50.834;3.160;2022-10-10T02:17:38;20.40;48.20
34249;DHT22;20508;50.834;3.160;2022-10-10T02:20:06;20.40;48.20
34249;DHT22;20508;50.834;3.160;2022-10-10T02:22:33;20.40;48.20
34249;DHT22;20508;50.834;3.160;2022-10-10T02:25:00;20.30;48.10
34249;DHT22;20508;50.834;3.160;2022-10-10T02:30:04;20.30;48.10
34249;DHT22;20508;50.834;3.160;2022-10-10T02:32:39;20.40;48.20
34249;DHT22;20508;50.834;3.160;2022-10-10T02:35:10;20.30;48.10
34249;DHT22;20508;50.834;3.160;2022-10-10T02:37:39;20.30;48.20
34249;DHT22;20508;50.834;3.160;2022-10-10T02:40:08;20.30;48.20
34249;DHT22;20508;50.834;3.160;2022-10-10T02:42:35;20.30;48.20
34249;DHT22;20508;50.834;3.160;2022-10-10T02:45:04;20.30;48.20
34249;DHT22;20508;50.834;3.160;2022-10-10T02:47:30;20.20;48.20
34249;DHT22;20508;50.834;3.160;2022-10-10T02:49:56;20.20;48.30
34249;DHT22;20508;50.834;3.160;2022-10-10T02:52:22;20.30;48.30
34249;DHT22;20508;50.834;3.160;2022-10-10T02:54:59;20.30;48.20
34249;DHT22;20508;50.834;3.160;2022-10-10T02:57:25;20.30;48.80
34249;DHT22;20508;50.834;3.160;2022-10-10T02:59:51;20.30;48.10
34249;DHT22;20508;50.834;3.160;2022-10-10T03:02:17;20.30;48.00
34249;DHT22;20508;50.834;3.160;2022-10-10T03:04:43;20.30;48.00
34249;DHT22;20508;50.834;3.160;2022-10-10T03:07:10;20.30;47.90
34249;DHT22;20508;50.834;3.160;2022-10-10T03:09:36;20.30;47.90
34249;DHT22;20508;50.834;3.160;2022-10-10T03:12:02;20.30;48.00
34249;DHT22;20508;50.834;3.160;2022-10-10T03:14:28;20.30;47.90
34249;DHT22;20508;50.834;3.160;2022-10-10T03:16:55;20.30;48.00
34249;DHT22;20508;50.834;3.160;2022-10-10T03:19:21;20.30;48.00
34249;DHT22;20508;50.834;3.160;2022-10-10T03:21:51;20.30;48.00
34249;DHT22;20508;50.834;3.160;2022-10-10T03:24:17;20.30;47.90
34249;DHT22;20508;50.834;3.160;2022-10-10T03:26:43;20.30;47.90
34249;DHT22;20508;50.834;3.160;2022-10-10T03:29:09;20.30;47.90
34249;DHT22;20508;50.834;3.160;2022-10-10T03:31:35;20.30;47.80
34249;DHT22;20508;50.834;3.160;2022-10-10T03:34:01;20.40;47.80
34249;DHT22;20508;50.834;3.160;2022-10-10T03:36:27;20.40;47.70
34249;DHT22;20508;50.834;3.160;2022-10-10T03:38:55;20.40;47.60
34249;DHT22;20508;50.834;3.160;2022-10-10T03:41:21;20.50;47.50
34249;DHT22;20508;50.834;3.160;2022-10-10T03:43:47;20.50;47.50
34249;DHT22;20508;50.834;3.160;2022-10-10T03:46:14;20.50;47.40
34249;DHT22;20508;50.834;3.160;2022-10-10T03:48:40;20.50;47.30
34249;DHT22;20508;50.834;3.160;2022-10-10T03:51:06;20.50;47.30
34249;DHT22;20508;50.834;3.160;2022-10-10T03:53:32;20.50;47.30
34249;DHT22;20508;50.834;3.160;2022-10-10T03:55:58;20.40;47.40
34249;DHT22;20508;50.834;3.160;2022-10-10T03:58:27;20.40;47.40
34249;DHT22;20508;50.834;3.160;2022-10-10T04:01:00;20.40;47.50
34249;DHT22;20508;50.834;3.160;2022-10-10T04:03:27;20.40;47.40
34249;DHT22;20508;50.834;3.160;2022-10-10T04:05:54;20.30;47.50
34249;DHT22;20508;50.834;3.160;2022-10-10T04:08:21;20.30;47.60
34249;DHT22;20508;50.834;3.160;2022-10-10T04:10:49;20.30;47.70
34249;DHT22;20508;50.834;3.160;2022-10-10T04:13:15;20.20;47.70
34249;DHT22;20508;50.834;3.160;2022-10-10T04:15:42;20.20;47.70
34249;DHT22;20508;50.834;3.160;2022-10-10T04:18:08;20.20;47.80
34249;DHT22;20508;50.834;3.160;2022-10-10T04:20:34;20.20;47.90
34249;DHT22;20508;50.834;3.160;2022-10-10T04:23:00;20.20;47.90
34249;DHT22;20508;50.834;3.160;2022-10-10T04:25:26;20.20;47.80
34249;DHT22;20508;50.834;3.160;2022-10-10T04:27:53;20.20;47.70
34249;DHT22;20508;50.834;3.160;2022-10-10T04:30:19;20.20;47.80
34249;DHT22;20508;50.834;3.160;2022-10-10T04:32:45;20.30;47.80
34249;DHT22;20508;50.834;3.160;2022-10-10T04:35:11;20.30;47.70
34249;DHT22;20508;50.834;3.160;2022-10-10T04:37:38;20.30;47.80
34249;DHT22;20508;50.834;3.160;2022-10-10T04:40:04;20.30;47.70
34249;DHT22;20508;50.834;3.160;2022-10-10T04:42:31;20.20;47.70
34249;DHT22;20508;50.834;3.160;2022-10-10T04:44:57;20.30;47.80
34249;DHT22;20508;50.834;3.160;2022-10-10T04:47:23;20.20;47.80
34249;DHT22;20508;50.834;3.160;2022-10-10T04:49:49;20.20;47.80
34249;DHT22;20508;50.834;3.160;2022-10-10T04:52:15;20.20;47.90
34249;DHT22;20508;50.834;3.160;2022-10-10T04:54:42;20.20;47.90
34249;DHT22;20508;50.834;3.160;2022-10-10T04:57:08;20.20;47.90
34249;DHT22;20508;50.834;3.160;2022-10-10T04:59:37;20.20;47.90
34249;DHT22;20508;50.834;3.160;2022-10-10T05:02:04;20.10;47.90
34249;DHT22;20508;50.834;3.160;2022-10-10T05:04:30;20.10;48.00
34249;DHT22;20508;50.834;3.160;2022-10-10T05:06:56;20.10;48.00
34249;DHT22;20508;50.834;3.160;2022-10-10T05:09:22;20.10;48.00
34249;DHT22;20508;50.834;3.160;2022-10-10T05:11:48;20.10;47.90
34249;DHT22;20508;50.834;3.160;2022-10-10T05:14:17;20.20;48.00
34249;DHT22;20508;50.834;3.160;2022-10-10T05:16:43;20.20;47.90
34249;DHT22;20508;50.834;3.160;2022-10-10T05:19:10;20.20;47.90
34249;DHT22;20508;50.834;3.160;2022-10-10T05:21:36;20.20;47.90
34249;DHT22;20508;50.834;3.160;2022-10-10T05:24:02;20.20;47.80
34249;DHT22;20508;50.834;3.160;2022-10-10T05:26:28;20.20;47.80
34249;DHT22;20508;50.834;3.160;2022-10-10T05:28:55;20.20;47.80
34249;DHT22;20508;50.834;3.160;2022-10-10T05:31:21;20.10;47.80
34249;DHT22;20508;50.834;3.160;2022-10-10T05:33:47;20.20;48.00
34249;DHT22;20508;50.834;3.160;2022-10-10T05:36:14;20.10;47.90
34249;DHT22;20508;50.834;3.160;2022-10-10T05:38:40;20.20;47.90
34249;DHT22;20508;50.834;3.160;2022-10-10T05:41:08;20.10;48.00
34249;DHT22;20508;50.834;3.160;2022-10-10T05:43:34;20.10;48.00
34249;DHT22;20508;50.834;3.160;2022-10-10T05:46:01;20.10;48.00
34249;DHT22;20508;50.834;3.160;2022-10-10T05:48:27;20.10;48.10
34249;DHT22;20508;50.834;3.160;2022-10-10T05:50:57;20.10;48.10
34249;DHT22;20508;50.834;3.160;2022-10-10T05:53:25;20.10;48.00
34249;DHT22;20508;50.834;3.160;2022-10-10T05:55:52;20.00;48.00
34249;DHT22;20508;50.834;3.160;2022-10-10T05:58:19;20.10;48.10
34249;DHT22;20508;50.834;3.160;2022-10-10T06:00:46;20.10;48.10
34249;DHT22;20508;50.834;3.160;2022-10-10T06:03:13;20.10;47.90
34249;DHT22;20508;50.834;3.160;2022-10-10T06:05:44;20.00;47.80
34249;DHT22;20508;50.834;3.160;2022-10-10T06:08:11;20.10;47.80
34249;DHT22;20508;50.834;3.160;2022-10-10T06:10:39;20.10;47.90
34249;DHT22;20508;50.834;3.160;2022-10-10T06:13:13;20.10;47.80
34249;DHT22;20508;50.834;3.160;2022-10-10T06:15:40;20.20;47.80
34249;DHT22;20508;50.834;3.160;2022-10-10T06:18:06;20.10;48.50
34249;DHT22;20508;50.834;3.160;2022-10-10T06:20:37;20.20;47.80
34249;DHT22;20508;50.834;3.160;2022-10-10T06:23:07;20.20;47.70
34249;DHT22;20508;50.834;3.160;2022-10-10T06:25:34;20.20;47.70
34249;DHT22;20508;50.834;3.160;2022-10-10T06:28:00;20.20;47.70
34249;DHT22;20508;50.834;3.160;2022-10-10T06:30:27;20.20;47.70
34249;DHT22;20508;50.834;3.160;2022-10-10T06:32:53;20.20;47.70
34249;DHT22;20508;50.834;3.160;2022-10-10T06:35:19;20.20;47.60
34249;DHT22;20508;50.834;3.160;2022-10-10T06:37:46;20.20;47.60
34249;DHT22;20508;50.834;3.160;2022-10-10T06:40:12;20.20;47.50
34249;DHT22;20508;50.834;3.160;2022-10-10T06:42:38;20.20;47.50
34249;DHT22;20508;50.834;3.160;2022-10-10T06:45:04;20.30;47.60
34249;DHT22;20508;50.834;3.160;2022-10-10T06:47:31;20.30;47.50
34249;DHT22;20508;50.834;3.160;2022-10-10T06:49:57;20.30;47.60
34249;DHT22;20508;50.834;3.160;2022-10-10T06:52:23;20.30;47.50
34249;DHT22;20508;50.834;3.160;2022-10-10T06:54:50;20.30;47.50
34249;DHT22;20508;50.834;3.160;2022-10-10T06:57:16;20.30;47.60
34249;DHT22;20508;50.834;3.160;2022-10-10T06:59:42;20.30;47.60
34249;DHT22;20508;50.834;3.160;2022-10-10T07:02:12;20.20;47.60
34249;DHT22;20508;50.834;3.160;2022-10-10T07:04:38;20.20;47.80
34249;DHT22;20508;50.834;3.160;2022-10-10T07:07:06;20.20;47.90
34249;DHT22;20508;50.834;3.160;2022-10-10T07:09:34;20.20;48.00
34249;DHT22;20508;50.834;3.160;2022-10-10T07:12:01;20.20;48.10
34249;DHT22;20508;50.834;3.160;2022-10-10T07:14:27;20.10;48.10
34249;DHT22;20508;50.834;3.160;2022-10-10T07:16:54;20.10;48.10
34249;DHT22;20508;50.834;3.160;2022-10-10T07:19:20;20.10;48.20
34249;DHT22;20508;50.834;3.160;2022-10-10T07:21:49;20.10;48.20
34249;DHT22;20508;50.834;3.160;2022-10-10T07:24:15;20.10;48.10
34249;DHT22;20508;50.834;3.160;2022-10-10T07:26:42;20.20;48.20
34249;DHT22;20508;50.834;3.160;2022-10-10T07:29:08;20.10;48.10
34249;DHT22;20508;50.834;3.160;2022-10-10T07:31:34;20.20;48.10
34249;DHT22;20508;50.834;3.160;2022-10-10T07:34:00;20.20;48.10
34249;DHT22;20508;50.834;3.160;2022-10-10T07:36:26;20.30;48.10
34249;DHT22;20508;50.834;3.160;2022-10-10T07:38:52;20.20;47.90
34249;DHT22;20508;50.834;3.160;2022-10-10T07:41:20;20.20;48.00
34249;DHT22;20508;50.834;3.160;2022-10-10T07:43:46;20.20;47.90
34249;DHT22;20508;50.834;3.160;2022-10-10T07:46:17;20.20;47.90
34249;DHT22;20508;50.834;3.160;2022-10-10T07:48:44;20.30;47.90
34249;DHT22;20508;50.834;3.160;2022-10-10T07:51:10;20.20;48.00
34249;DHT22;20508;50.834;3.160;2022-10-10T07:53:36;20.20;48.10
34249;DHT22;20508;50.834;3.160;2022-10-10T07:56:07;20.20;48.10
34249;DHT22;20508;50.834;3.160;2022-10-10T07:58:34;20.20;48.10
34249;DHT22;20508;50.834;3.160;2022-10-10T08:01:07;20.20;48.20
34249;DHT22;20508;50.834;3.160;2022-10-10T08:03:33;20.20;48.30
34249;DHT22;20508;50.834;3.160;2022-10-10T08:06:02;20.20;48.40
34249;DHT22;20508;50.834;3.160;2022-10-10T08:08:31;20.10;48.40
34249;DHT22;20508;50.834;3.160;2022-10-10T08:10:58;20.10;48.40
34249;DHT22;20508;50.834;3.160;2022-10-10T08:13:25;20.20;48.50
34249;DHT22;20508;50.834;3.160;2022-10-10T08:15:54;20.20;48.40
34249;DHT22;20508;50.834;3.160;2022-10-10T08:18:20;20.20;48.40
34249;DHT22;20508;50.834;3.160;2022-10-10T08:20:46;20.20;48.30
34249;DHT22;20508;50.834;3.160;2022-10-10T08:23:13;20.30;48.30
34249;DHT22;20508;50.834;3.160;2022-10-10T08:25:39;20.30;48.20
34249;DHT22;20508;50.834;3.160;2022-10-10T08:28:05;20.30;48.20
34249;DHT22;20508;50.834;3.160;2022-10-10T08:30:31;20.30;48.20
34249;DHT22;20508;50.834;3.160;2022-10-10T08:32:59;20.30;48.20
34249;DHT22;20508;50.834;3.160;2022-10-10T08:35:26;20.30;48.30
34249;DHT22;20508;50.834;3.160;2022-10-10T08:37:52;20.30;48.30
34249;DHT22;20508;50.834;3.160;2022-10-10T08:40:19;20.30;48.40
34249;DHT22;20508;50.834;3.160;2022-10-10T08:42:49;20.30;48.90
34249;DHT22;20508;50.834;3.160;2022-10-10T08:45:23;20.30;48.30
34249;DHT22;20508;50.834;3.160;2022-10-10T08:47:54;20.30;48.70
34249;DHT22;20508;50.834;3.160;2022-10-10T08:50:28;20.30;48.70
34249;DHT22;20508;50.834;3.160;2022-10-10T08:55:32;20.30;48.70
34249;DHT22;20508;50.834;3.160;2022-10-10T09:00:39;20.30;48.70
34249;DHT22;20508;50.834;3.160;2022-10-10T09:06:06;20.50;48.80
34249;DHT22;20508;50.834;3.160;2022-10-10T09:16:55;20.50;48.70
34249;DHT22;20508;50.834;3.160;2022-10-10T09:20:04;20.60;48.70
34249;DHT22;20508;50.834;3.160;2022-10-10T09:22:22;20.60;48.60
34249;DHT22;20508;50.834;3.160;2022-10-10T09:25:31;20.60;48.60
34249;DHT22;20508;50.834;3.160;2022-10-10T09:28:11;20.60;48.50
34249;DHT22;20508;50.834;3.160;2022-10-10T09:30:53;20.60;48.60
34249;DHT22;20508;50.834;3.160;2022-10-10T09:33:39;20.60;48.70
34249;DHT22;20508;50.834;3.160;2022-10-10T09:36:12;20.70;48.70
34249;DHT22;20508;50.834;3.160;2022-10-10T09:38:52;20.60;48.70
34249;DHT22;20508;50.834;3.160;2022-10-10T09:41:33;20.70;48.70
34249;DHT22;20508;50.834;3.160;2022-10-10T09:44:04;20.70;48.70
34249;DHT22;20508;50.834;3.160;2022-10-10T09:46:30;20.70;48.80
34249;DHT22;20508;50.834;3.160;2022-10-10T09:48:57;20.60;49.20
34249;DHT22;20508;50.834;3.160;2022-10-10T09:51:23;20.70;49.40
34249;DHT22;20508;50.834;3.160;2022-10-10T09:53:49;20.70;49.50
34249;DHT22;20508;50.834;3.160;2022-10-10T09:56:26;20.70;49.70
34249;DHT22;20508;50.834;3.160;2022-10-10T09:58:55;20.70;49.50
34249;DHT22;20508;50.834;3.160;2022-10-10T10:01:30;20.60;49.70
34249;DHT22;20508;50.834;3.160;2022-10-10T10:04:13;20.70;49.80
34249;DHT22;20508;50.834;3.160;2022-10-10T10:06:46;20.70;49.80
34249;DHT22;20508;50.834;3.160;2022-10-10T10:09:15;20.60;51.80
34249;DHT22;20508;50.834;3.160;2022-10-10T10:11:44;20.60;51.10
34249;DHT22;20508;50.834;3.160;2022-10-10T10:14:25;20.60;50.90
34249;DHT22;20508;50.834;3.160;2022-10-10T10:16:53;20.60;50.60
34249;DHT22;20508;50.834;3.160;2022-10-10T10:19:40;20.60;50.60
34249;DHT22;20508;50.834;3.160;2022-10-10T10:22:37;20.60;50.50
34249;DHT22;20508;50.834;3.160;2022-10-10T10:25:29;20.60;50.50
34249;DHT22;20508;50.834;3.160;2022-10-10T10:28:15;20.60;50.50
34249;DHT22;20508;50.834;3.160;2022-10-10T10:30:43;20.60;50.50
34249;DHT22;20508;50.834;3.160;2022-10-10T10:33:19;20.50;50.70
34249;DHT22;20508;50.834;3.160;2022-10-10T10:36:04;20.50;50.60
34249;DHT22;20508;50.834;3.160;2022-10-10T10:47:33;20.60;50.50
34249;DHT22;20508;50.834;3.160;2022-10-10T10:50:19;20.60;50.80
34249;DHT22;20508;50.834;3.160;2022-10-10T11:04:44;20.40;51.20
34249;DHT22;20508;50.834;3.160;2022-10-10T11:15:03;20.50;51.10
34249;DHT22;20508;50.834;3.160;2022-10-10T11:17:50;20.60;51.00
34249;DHT22;20508;50.834;3.160;2022-10-10T11:20:23;20.70;51.00
34249;DHT22;20508;50.834;3.160;2022-10-10T11:22:58;20.60;51.00
34249;DHT22;20508;50.834;3.160;2022-10-10T11:25:30;20.60;51.00
34249;DHT22;20508;50.834;3.160;2022-10-10T11:30:35;20.70;51.00
34249;DHT22;20508;50.834;3.160;2022-10-10T11:33:18;20.70;51.00
34249;DHT22;20508;50.834;3.160;2022-10-10T11:36:33;20.70;50.80
34249;DHT22;20508;50.834;3.160;2022-10-10T11:38:43;20.70;50.90
34249;DHT22;20508;50.834;3.160;2022-10-10T11:41:29;20.70;51.00
34249;DHT22;20508;50.834;3.160;2022-10-10T11:44:09;20.70;50.90
34249;DHT22;20508;50.834;3.160;2022-10-10T11:55:27;20.60;51.10
34249;DHT22;20508;50.834;3.160;2022-10-10T12:00:36;20.50;51.80
34249;DHT22;20508;50.834;3.160;2022-10-10T12:03:07;20.60;51.70
34249;DHT22;20508;50.834;3.160;2022-10-10T12:05:34;20.60;51.70
34249;DHT22;20508;50.834;3.160;2022-10-10T12:08:13;20.60;51.60
34249;DHT22;20508;50.834;3.160;2022-10-10T12:10:47;20.70;51.40
34249;DHT22;20508;50.834;3.160;2022-10-10T12:13:31;20.70;51.40
34249;DHT22;20508;50.834;3.160;2022-10-10T12:16:08;20.80;51.10
34249;DHT22;20508;50.834;3.160;2022-10-10T12:18:45;20.80;51.10
34249;DHT22;20508;50.834;3.160;2022-10-10T12:21:14;20.80;51.00
34249;DHT22;20508;50.834;3.160;2022-10-10T12:23:42;20.80;50.90
34249;DHT22;20508;50.834;3.160;2022-10-10T12:26:20;20.90;50.90
34249;DHT22;20508;50.834;3.160;2022-10-10T12:28:59;20.90;50.80
34249;DHT22;20508;50.834;3.160;2022-10-10T12:31:37;20.80;50.80
34249;DHT22;20508;50.834;3.160;2022-10-10T12:34:10;20.80;50.80
34249;DHT22;20508;50.834;3.160;2022-10-10T12:39:37;20.80;50.90
34249;DHT22;20508;50.834;3.160;2022-10-10T12:42:27;20.70;51.10
34249;DHT22;20508;50.834;3.160;2022-10-10T12:44:54;20.80;51.10
34249;DHT22;20508;50.834;3.160;2022-10-10T12:47:35;20.70;51.30
34249;DHT22;20508;50.834;3.160;2022-10-10T12:50:19;20.70;51.50
34249;DHT22;20508;50.834;3.160;2022-10-10T12:52:50;20.70;52.70
34249;DHT22;20508;50.834;3.160;2022-10-10T12:57:53;20.70;52.60
34249;DHT22;20508;50.834;3.160;2022-10-10T13:00:23;20.70;52.50
34249;DHT22;20508;50.834;3.160;2022-10-10T13:02:59;20.70;52.50
34249;DHT22;20508;50.834;3.160;2022-10-10T13:05:35;20.80;52.40
34249;DHT22;20508;50.834;3.160;2022-10-10T13:08:10;20.80;52.40
34249;DHT22;20508;50.834;3.160;2022-10-10T13:10:37;20.70;52.40
34249;DHT22;20508;50.834;3.160;2022-10-10T13:13:12;20.70;52.40
34249;DHT22;20508;50.834;3.160;2022-10-10T13:15:50;20.70;52.40
34249;DHT22;20508;50.834;3.160;2022-10-10T13:18:40;20.70;52.30
34249;DHT22;20508;50.834;3.160;2022-10-10T13:21:11;20.70;52.30
34249;DHT22;20508;50.834;3.160;2022-10-10T13:23:47;20.60;52.70
34249;DHT22;20508;50.834;3.160;2022-10-10T13:26:26;20.60;52.60
34249;DHT22;20508;50.834;3.160;2022-10-10T13:28:54;20.60;52.60
34249;DHT22;20508;50.834;3.160;2022-10-10T13:31:23;20.50;52.60
34249;DHT22;20508;50.834;3.160;2022-10-10T13:33:49;20.60;52.60
34249;DHT22;20508;50.834;3.160;2022-10-10T13:36:20;20.60;52.60
34249;DHT22;20508;50.834;3.160;2022-10-10T13:38:47;20.60;52.80
34249;DHT22;20508;50.834;3.160;2022-10-10T13:41:16;20.60;52.80
34249;DHT22;20508;50.834;3.160;2022-10-10T13:43:46;20.60;52.80
34249;DHT22;20508;50.834;3.160;2022-10-10T13:46:42;20.60;52.80
34249;DHT22;20508;50.834;3.160;2022-10-10T13:49:26;20.70;52.70
34249;DHT22;20508;50.834;3.160;2022-10-10T13:52:04;20.60;52.70
34249;DHT22;20508;50.834;3.160;2022-10-10T13:54:48;20.70;52.80
34249;DHT22;20508;50.834;3.160;2022-10-10T13:57:25;20.60;52.80
34249;DHT22;20508;50.834;3.160;2022-10-10T14:00:02;20.60;52.90
34249;DHT22;20508;50.834;3.160;2022-10-10T14:02:31;20.60;52.90
34249;DHT22;20508;50.834;3.160;2022-10-10T14:04:58;20.50;52.90
34249;DHT22;20508;50.834;3.160;2022-10-10T14:07:29;20.50;52.90
34249;DHT22;20508;50.834;3.160;2022-10-10T14:10:00;20.50;53.00
34249;DHT22;20508;50.834;3.160;2022-10-10T14:12:38;20.50;52.90
34249;DHT22;20508;50.834;3.160;2022-10-10T14:15:43;20.50;53.00
34249;DHT22;20508;50.834;3.160;2022-10-10T14:18:18;20.50;52.90
34249;DHT22;20508;50.834;3.160;2022-10-10T14:20:45;20.50;53.00
34249;DHT22;20508;50.834;3.160;2022-10-10T14:23:12;20.50;53.00
34249;DHT22;20508;50.834;3.160;2022-10-10T14:25:40;20.50;52.90
34249;DHT22;20508;50.834;3.160;2022-10-10T14:28:15;20.50;52.80
34249;DHT22;20508;50.834;3.160;2022-10-10T14:30:43;20.60;52.80
34249;DHT22;20508;50.834;3.160;2022-10-10T14:33:14;20.50;52.70
34249;DHT22;20508;50.834;3.160;2022-10-10T14:35:41;20.50;54.70
34249;DHT22;20508;50.834;3.160;2022-10-10T14:38:09;20.50;54.90
34249;DHT22;20508;50.834;3.160;2022-10-10T14:40:36;20.60;54.80
34249;DHT22;20508;50.834;3.160;2022-10-10T14:43:04;20.60;54.40
34249;DHT22;20508;50.834;3.160;2022-10-10T14:45:30;20.60;54.10
34249;DHT22;20508;50.834;3.160;2022-10-10T14:48:00;20.60;54.00
34249;DHT22;20508;50.834;3.160;2022-10-10T14:50:33;20.60;54.00
34249;DHT22;20508;50.834;3.160;2022-10-10T14:53:00;20.60;53.80
34249;DHT22;20508;50.834;3.160;2022-10-10T14:55:26;20.50;54.00
34249;DHT22;20508;50.834;3.160;2022-10-10T14:57:53;20.50;54.80
34249;DHT22;20508;50.834;3.160;2022-10-10T15:00:21;20.60;55.80
34249;DHT22;20508;50.834;3.160;2022-10-10T15:02:48;20.60;55.80
34249;DHT22;20508;50.834;3.160;2022-10-10T15:05:14;20.70;55.60
34249;DHT22;20508;50.834;3.160;2022-10-10T15:07:41;20.70;55.60
34249;DHT22;20508;50.834;3.160;2022-10-10T15:10:08;20.80;55.50
34249;DHT22;20508;50.834;3.160;2022-10-10T15:12:37;20.80;55.30
34249;DHT22;20508;50.834;3.160;2022-10-10T15:15:04;20.90;55.30
34249;DHT22;20508;50.834;3.160;2022-10-10T15:17:31;20.90;55.30
34249;DHT22;20508;50.834;3.160;2022-10-10T15:20:01;20.90;55.30
34249;DHT22;20508;50.834;3.160;2022-10-10T15:22:29;20.90;55.30
34249;DHT22;20508;50.834;3.160;2022-10-10T15:24:55;20.90;55.40
34249;DHT22;20508;50.834;3.160;2022-10-10T15:27:21;20.90;55.40
34249;DHT22;20508;50.834;3.160;2022-10-10T15:29:47;20.90;55.60
34249;DHT22;20508;50.834;3.160;2022-10-10T15:32:13;20.90;55.80
34249;DHT22;20508;50.834;3.160;2022-10-10T15:34:40;20.90;55.90
34249;DHT22;20508;50.834;3.160;2022-10-10T15:37:06;20.90;56.00
34249;DHT22;20508;50.834;3.160;2022-10-10T15:39:36;20.90;56.20
34249;DHT22;20508;50.834;3.160;2022-10-10T15:42:02;20.90;56.30
34249;DHT22;20508;50.834;3.160;2022-10-10T15:44:29;20.90;56.20
34249;DHT22;20508;50.834;3.160;2022-10-10T15:46:55;20.90;56.00
34249;DHT22;20508;50.834;3.160;2022-10-10T15:49:21;20.90;55.90
34249;DHT22;20508;50.834;3.160;2022-10-10T15:51:47;20.90;55.70
34249;DHT22;20508;50.834;3.160;2022-10-10T15:54:14;20.90;55.70
34249;DHT22;20508;50.834;3.160;2022-10-10T15:56:40;21.00;55.60
34249;DHT22;20508;50.834;3.160;2022-10-10T15:59:07;21.00;55.40
34249;DHT22;20508;50.834;3.160;2022-10-10T16:01:34;20.90;55.50
34249;DHT22;20508;50.834;3.160;2022-10-10T16:04:02;20.90;55.40
34249;DHT22;20508;50.834;3.160;2022-10-10T16:06:28;20.90;55.30
34249;DHT22;20508;50.834;3.160;2022-10-10T16:08:55;20.90;55.20
34249;DHT22;20508;50.834;3.160;2022-10-10T16:11:23;20.80;55.20
34249;DHT22;20508;50.834;3.160;2022-10-10T16:13:53;20.80;55.20
34249;DHT22;20508;50.834;3.160;2022-10-10T16:16:21;20.80;55.10
34249;DHT22;20508;50.834;3.160;2022-10-10T16:18:48;20.80;55.00
34249;DHT22;20508;50.834;3.160;2022-10-10T16:21:17;20.80;55.10
34249;DHT22;20508;50.834;3.160;2022-10-10T16:23:45;20.70;55.00
34249;DHT22;20508;50.834;3.160;2022-10-10T16:26:14;20.80;55.10
34249;DHT22;20508;50.834;3.160;2022-10-10T16:28:41;20.70;55.10
34249;DHT22;20508;50.834;3.160;2022-10-10T16:31:10;20.70;55.00
34249;DHT22;20508;50.834;3.160;2022-10-10T16:33:38;20.70;54.90
34249;DHT22;20508;50.834;3.160;2022-10-10T16:36:15;20.70;54.80
34249;DHT22;20508;50.834;3.160;2022-10-10T16:38:41;20.70;55.40
34249;DHT22;20508;50.834;3.160;2022-10-10T16:41:12;20.70;54.70
34249;DHT22;20508;50.834;3.160;2022-10-10T16:43:41;20.70;54.50
34249;DHT22;20508;50.834;3.160;2022-10-10T16:46:09;20.70;54.60
34249;DHT22;20508;50.834;3.160;2022-10-10T16:48:37;20.70;54.30
34249;DHT22;20508;50.834;3.160;2022-10-10T16:51:06;20.70;54.20
34249;DHT22;20508;50.834;3.160;2022-10-10T16:53:33;20.70;54.00
34249;DHT22;20508;50.834;3.160;2022-10-10T16:56:01;20.60;53.80
34249;DHT22;20508;50.834;3.160;2022-10-10T16:58:28;20.70;53.40
34249;DHT22;20508;50.834;3.160;2022-10-10T17:00:54;20.60;53.30
34249;DHT22;20508;50.834;3.160;2022-10-10T17:03:23;20.60;53.10
34249;DHT22;20508;50.834;3.160;2022-10-10T17:06:06;20.60;53.10
34249;DHT22;20508;50.834;3.160;2022-10-10T17:08:35;20.60;52.90
34249;DHT22;20508;50.834;3.160;2022-10-10T17:11:02;20.50;52.80
34249;DHT22;20508;50.834;3.160;2022-10-10T17:13:29;20.50;52.60
34249;DHT22;20508;50.834;3.160;2022-10-10T17:15:56;20.60;52.60
34249;DHT22;20508;50.834;3.160;2022-10-10T17:18:23;20.60;52.50
34249;DHT22;20508;50.834;3.160;2022-10-10T17:20:49;20.60;52.40
34249;DHT22;20508;50.834;3.160;2022-10-10T17:23:16;20.60;52.30
34249;DHT22;20508;50.834;3.160;2022-10-10T17:25:43;20.60;52.20
34249;DHT22;20508;50.834;3.160;2022-10-10T17:28:10;20.60;52.10